WZZ27A LIBD-EPKK
Flight info
| Callsign | WZZ27A |
|---|---|
| Flight time | 1h 28m |
| Altitude | 35000 |
| Route | LIBD SID BANAV DCT MUJAC DCT VRANA DCT BAREB DCT ETARO DCT BALAP DCT MEBAN STAR EPKK |
| Aircraft | A320/M-V/N |
Departure
| Time | 2026-04-24 19:42 |
|---|---|
| Airport | Bari Karol Wojtyła International Airport (LIBD) |
Arrival
| Time | 2026-04-24 21:10 |
|---|---|
| Airport | Kraków John Paul II International Airport (EPKK) |
| Time | Latitude | Longitude | Altitude | Speed | Heading |
|---|---|---|---|---|---|
| 2026-04-24 19:12 | 41.13571 | 16.76514 | 141 ft | 0 kts | 159° |
| 2026-04-24 19:34 | 41.13571 | 16.76513 | 141 ft | 0 kts | 159° |
| 2026-04-24 19:34 | 41.13583 | 16.76507 | 141 ft | 2 kts | 159° |
| 2026-04-24 19:35 | 41.13594 | 16.76502 | 141 ft | 0 kts | 160° |
| 2026-04-24 19:35 | 41.13605 | 16.76495 | 141 ft | 2 kts | 144° |
| 2026-04-24 19:35 | 41.13617 | 16.76482 | 141 ft | 2 kts | 128° |
| 2026-04-24 19:35 | 41.13624 | 16.76465 | 141 ft | 2 kts | 111° |
| 2026-04-24 19:36 | 41.13628 | 16.76445 | 141 ft | 2 kts | 94° |
| 2026-04-24 19:36 | 41.13627 | 16.76426 | 141 ft | 2 kts | 76° |
| 2026-04-24 19:36 | 41.13625 | 16.76416 | 142 ft | 1 kts | 66° |
| 2026-04-24 19:36 | 41.13623 | 16.76412 | 142 ft | 0 kts | 69° |
| 2026-04-24 19:38 | 41.13629 | 16.76432 | 141 ft | 10 kts | 69° |
| 2026-04-24 19:39 | 41.13668 | 16.76523 | 139 ft | 9 kts | 42° |
| 2026-04-24 19:39 | 41.13726 | 16.76592 | 136 ft | 12 kts | 60° |
| 2026-04-24 19:39 | 41.13761 | 16.76717 | 134 ft | 15 kts | 68° |
| 2026-04-24 19:39 | 41.13856 | 16.76774 | 130 ft | 17 kts | 35° |
| 2026-04-24 19:40 | 41.13911 | 16.76921 | 128 ft | 18 kts | 73° |
| 2026-04-24 19:40 | 41.13956 | 16.77094 | 123 ft | 20 kts | 71° |
| 2026-04-24 19:40 | 41.14012 | 16.77286 | 117 ft | 23 kts | 68° |
| 2026-04-24 19:40 | 41.14127 | 16.77410 | 109 ft | 18 kts | 16° |
| 2026-04-24 19:41 | 41.14218 | 16.77357 | 108 ft | 14 kts | 272° |
| 2026-04-24 19:41 | 41.14175 | 16.77195 | 115 ft | 42 kts | 249° |
| 2026-04-24 19:41 | 41.13972 | 16.76481 | 131 ft | 119 kts | 250° |
| 2026-04-24 19:41 | 41.13618 | 16.75215 | 309 ft | 164 kts | 250° |
| 2026-04-24 19:42 | 41.13210 | 16.73753 | 923 ft | 177 kts | 251° |
| 2026-04-24 19:42 | 41.12792 | 16.72136 | 1590 ft | 193 kts | 262° |
| 2026-04-24 19:42 | 41.13010 | 16.70384 | 2090 ft | 209 kts | 306° |
| 2026-04-24 19:42 | 41.14200 | 16.69257 | 2709 ft | 224 kts | 347° |
| 2026-04-24 19:43 | 41.15774 | 16.69451 | 3446 ft | 241 kts | 19° |
| 2026-04-24 19:43 | 41.17333 | 16.70410 | 4348 ft | 250 kts | 25° |
| 2026-04-24 19:43 | 41.18883 | 16.71426 | 5342 ft | 253 kts | 25° |
| 2026-04-24 19:43 | 41.20483 | 16.72300 | 6260 ft | 256 kts | 15° |
| 2026-04-24 19:44 | 41.22250 | 16.72726 | 7164 ft | 260 kts | 9° |
| 2026-04-24 19:44 | 41.24034 | 16.73043 | 7997 ft | 265 kts | 9° |
| 2026-04-24 19:44 | 41.25876 | 16.73378 | 8842 ft | 269 kts | 9° |
| 2026-04-24 19:44 | 41.27719 | 16.73733 | 9653 ft | 272 kts | 10° |
| 2026-04-24 19:45 | 41.29601 | 16.74112 | 10467 ft | 276 kts | 10° |
| 2026-04-24 19:45 | 41.31528 | 16.74513 | 10962 ft | 290 kts | 11° |
| 2026-04-24 19:45 | 41.33596 | 16.74952 | 11336 ft | 308 kts | 11° |
| 2026-04-24 19:45 | 41.35747 | 16.75414 | 11885 ft | 318 kts | 11° |
| 2026-04-24 19:46 | 41.37962 | 16.75890 | 12644 ft | 322 kts | 11° |
| 2026-04-24 19:46 | 41.40174 | 16.76368 | 13407 ft | 325 kts | 11° |
| 2026-04-24 19:46 | 41.42398 | 16.76849 | 14122 ft | 328 kts | 11° |
| 2026-04-24 19:46 | 41.44669 | 16.77343 | 14840 ft | 331 kts | 11° |
| 2026-04-24 19:47 | 41.46967 | 16.77844 | 15511 ft | 335 kts | 11° |
| 2026-04-24 19:47 | 41.49250 | 16.78342 | 16171 ft | 339 kts | 11° |
| 2026-04-24 19:47 | 41.51599 | 16.78854 | 16842 ft | 341 kts | 12° |
| 2026-04-24 19:47 | 41.53945 | 16.79368 | 17469 ft | 345 kts | 12° |
| 2026-04-24 19:48 | 41.56333 | 16.79891 | 18097 ft | 348 kts | 12° |
| 2026-04-24 19:48 | 41.58714 | 16.80413 | 18724 ft | 350 kts | 12° |
| 2026-04-24 19:48 | 41.63572 | 16.81479 | 19933 ft | 356 kts | 12° |
| 2026-04-24 19:49 | 41.68501 | 16.82564 | 21131 ft | 362 kts | 12° |
| 2026-04-24 19:49 | 41.73486 | 16.83661 | 22274 ft | 367 kts | 13° |
| 2026-04-24 19:50 | 41.81135 | 16.85351 | 23946 ft | 375 kts | 13° |
| 2026-04-24 19:50 | 41.83743 | 16.85930 | 24475 ft | 378 kts | 13° |
| 2026-04-24 19:51 | 41.89003 | 16.87096 | 25440 ft | 385 kts | 13° |
| 2026-04-24 19:51 | 41.91636 | 16.87694 | 25898 ft | 388 kts | 14° |
| 2026-04-24 19:52 | 41.96949 | 16.89352 | 26836 ft | 392 kts | 18° |
| 2026-04-24 19:52 | 41.99602 | 16.90277 | 27275 ft | 395 kts | 18° |
| 2026-04-24 19:52 | 42.02246 | 16.91207 | 27695 ft | 398 kts | 18° |
| 2026-04-24 19:52 | 42.04948 | 16.92157 | 28108 ft | 401 kts | 18° |
| 2026-04-24 19:53 | 42.07661 | 16.93111 | 28491 ft | 403 kts | 18° |
| 2026-04-24 19:53 | 42.10386 | 16.94070 | 28858 ft | 406 kts | 18° |
| 2026-04-24 19:53 | 42.15890 | 16.95997 | 29585 ft | 410 kts | 18° |
| 2026-04-24 19:54 | 42.18646 | 16.96964 | 29978 ft | 411 kts | 18° |
| 2026-04-24 19:54 | 42.21397 | 16.97931 | 30464 ft | 409 kts | 18° |
| 2026-04-24 19:54 | 42.24139 | 16.98898 | 30894 ft | 407 kts | 18° |
| 2026-04-24 19:54 | 42.26877 | 16.99863 | 31283 ft | 407 kts | 18° |
| 2026-04-24 19:55 | 42.27789 | 17.00186 | 31409 ft | 406 kts | 18° |
| 2026-04-24 19:55 | 42.32347 | 17.01799 | 32009 ft | 406 kts | 18° |
| 2026-04-24 19:55 | 42.35092 | 17.02771 | 32379 ft | 405 kts | 18° |
| 2026-04-24 19:55 | 42.37785 | 17.03726 | 32738 ft | 404 kts | 18° |
| 2026-04-24 19:56 | 42.40515 | 17.04694 | 33094 ft | 403 kts | 18° |
| 2026-04-24 19:56 | 42.43235 | 17.05662 | 33440 ft | 402 kts | 18° |
| 2026-04-24 19:56 | 42.45940 | 17.06624 | 33769 ft | 402 kts | 18° |
| 2026-04-24 19:56 | 42.48640 | 17.07586 | 34095 ft | 401 kts | 18° |
| 2026-04-24 19:57 | 42.51309 | 17.08536 | 34397 ft | 400 kts | 18° |
| 2026-04-24 19:57 | 42.54009 | 17.09500 | 34656 ft | 401 kts | 18° |
| 2026-04-24 19:57 | 42.56710 | 17.10467 | 34871 ft | 401 kts | 18° |
| 2026-04-24 19:57 | 42.59392 | 17.11427 | 34993 ft | 404 kts | 18° |
| 2026-04-24 19:58 | 42.62142 | 17.12413 | 34998 ft | 410 kts | 18° |
| 2026-04-24 19:58 | 42.67757 | 17.14426 | 35005 ft | 421 kts | 18° |
| 2026-04-24 19:59 | 42.73465 | 17.16474 | 35005 ft | 430 kts | 18° |
| 2026-04-24 19:59 | 42.79311 | 17.18575 | 35006 ft | 437 kts | 18° |
| 2026-04-24 20:00 | 42.85227 | 17.20705 | 35006 ft | 443 kts | 18° |
| 2026-04-24 20:00 | 42.91199 | 17.22858 | 35005 ft | 444 kts | 18° |
| 2026-04-24 20:01 | 42.97123 | 17.25000 | 35008 ft | 443 kts | 17° |
| 2026-04-24 20:01 | 43.03107 | 17.27168 | 35003 ft | 443 kts | 18° |
| 2026-04-24 20:02 | 43.08055 | 17.28965 | 35013 ft | 443 kts | 17° |
| 2026-04-24 20:02 | 43.15005 | 17.31486 | 35016 ft | 443 kts | 17° |
| 2026-04-24 20:03 | 43.20947 | 17.33643 | 35052 ft | 442 kts | 17° |
| 2026-04-24 20:03 | 43.26862 | 17.35802 | 35030 ft | 442 kts | 17° |
| 2026-04-24 20:04 | 43.32810 | 17.37980 | 35038 ft | 442 kts | 17° |
| 2026-04-24 20:04 | 43.38730 | 17.40152 | 35049 ft | 442 kts | 17° |
| 2026-04-24 20:05 | 43.44679 | 17.42340 | 35061 ft | 442 kts | 17° |
| 2026-04-24 20:05 | 43.50589 | 17.44519 | 35063 ft | 442 kts | 17° |
| 2026-04-24 20:06 | 43.56543 | 17.46720 | 35067 ft | 441 kts | 17° |
| 2026-04-24 20:06 | 43.62454 | 17.48910 | 35069 ft | 442 kts | 17° |
| 2026-04-24 20:07 | 43.67408 | 17.50753 | 35072 ft | 442 kts | 17° |
| 2026-04-24 20:07 | 43.74350 | 17.53338 | 35076 ft | 441 kts | 17° |
| 2026-04-24 20:08 | 43.80221 | 17.55699 | 35086 ft | 441 kts | 19° |
| 2026-04-24 20:08 | 43.86089 | 17.58211 | 35080 ft | 441 kts | 19° |
| 2026-04-24 20:09 | 43.91974 | 17.60733 | 35082 ft | 441 kts | 19° |
| 2026-04-24 20:09 | 43.97835 | 17.63240 | 35089 ft | 441 kts | 19° |
| 2026-04-24 20:10 | 44.03698 | 17.65753 | 35090 ft | 441 kts | 19° |
| 2026-04-24 20:10 | 44.09545 | 17.68291 | 35089 ft | 441 kts | 19° |
| 2026-04-24 20:11 | 44.15396 | 17.70810 | 35086 ft | 440 kts | 19° |
| 2026-04-24 20:11 | 44.21244 | 17.73322 | 35082 ft | 440 kts | 19° |
| 2026-04-24 20:12 | 44.27096 | 17.75846 | 35080 ft | 440 kts | 19° |
| 2026-04-24 20:12 | 44.32952 | 17.78375 | 35078 ft | 440 kts | 19° |
| 2026-04-24 20:13 | 44.38801 | 17.80908 | 35078 ft | 439 kts | 19° |
| 2026-04-24 20:13 | 44.44635 | 17.83441 | 35071 ft | 440 kts | 19° |
| 2026-04-24 20:14 | 44.50465 | 17.85978 | 35069 ft | 440 kts | 19° |
| 2026-04-24 20:14 | 44.56309 | 17.88525 | 35066 ft | 439 kts | 19° |
| 2026-04-24 20:15 | 44.62183 | 17.91090 | 35061 ft | 439 kts | 19° |
| 2026-04-24 20:15 | 44.68029 | 17.93649 | 35060 ft | 439 kts | 19° |
| 2026-04-24 20:16 | 44.73892 | 17.96221 | 35054 ft | 439 kts | 19° |
| 2026-04-24 20:16 | 44.79717 | 17.98782 | 35049 ft | 439 kts | 18° |
| 2026-04-24 20:17 | 44.85543 | 18.01348 | 35047 ft | 439 kts | 19° |
| 2026-04-24 20:17 | 44.94303 | 18.05218 | 35042 ft | 439 kts | 18° |
| 2026-04-24 20:18 | 45.00130 | 18.07799 | 35037 ft | 439 kts | 18° |
| 2026-04-24 20:18 | 45.05961 | 18.10386 | 35036 ft | 439 kts | 18° |
| 2026-04-24 20:19 | 45.11792 | 18.12978 | 35037 ft | 438 kts | 18° |
| 2026-04-24 20:19 | 45.17625 | 18.15565 | 35033 ft | 438 kts | 18° |
| 2026-04-24 20:20 | 45.23426 | 18.18150 | 35032 ft | 438 kts | 18° |
| 2026-04-24 20:20 | 45.29221 | 18.20742 | 35036 ft | 438 kts | 18° |
| 2026-04-24 20:21 | 45.35014 | 18.23340 | 35036 ft | 437 kts | 18° |
| 2026-04-24 20:21 | 45.40815 | 18.25951 | 35034 ft | 437 kts | 18° |
| 2026-04-24 20:22 | 45.46618 | 18.28566 | 35035 ft | 437 kts | 18° |
| 2026-04-24 20:22 | 45.52392 | 18.31175 | 35036 ft | 436 kts | 18° |
| 2026-04-24 20:23 | 45.58145 | 18.33782 | 35033 ft | 436 kts | 18° |
| 2026-04-24 20:23 | 45.63911 | 18.36402 | 35035 ft | 436 kts | 18° |
| 2026-04-24 20:24 | 45.69707 | 18.39043 | 35037 ft | 436 kts | 18° |
| 2026-04-24 20:24 | 45.75497 | 18.41516 | 35033 ft | 436 kts | 14° |
| 2026-04-24 20:25 | 45.81383 | 18.43471 | 35040 ft | 436 kts | 13° |
| 2026-04-24 20:25 | 45.87293 | 18.45375 | 35036 ft | 435 kts | 13° |
| 2026-04-24 20:26 | 45.93183 | 18.47283 | 35038 ft | 435 kts | 13° |
| 2026-04-24 20:26 | 45.99074 | 18.49202 | 35037 ft | 436 kts | 13° |
| 2026-04-24 20:27 | 46.04980 | 18.51133 | 35035 ft | 435 kts | 12° |
| 2026-04-24 20:27 | 46.10877 | 18.53062 | 35035 ft | 435 kts | 12° |
| 2026-04-24 20:28 | 46.16757 | 18.54983 | 35035 ft | 435 kts | 12° |
| 2026-04-24 20:28 | 46.22656 | 18.56919 | 35030 ft | 434 kts | 12° |
| 2026-04-24 20:29 | 46.28527 | 18.58852 | 35028 ft | 434 kts | 12° |
| 2026-04-24 20:29 | 46.34401 | 18.60795 | 35023 ft | 434 kts | 12° |
| 2026-04-24 20:30 | 46.40253 | 18.62731 | 35022 ft | 433 kts | 12° |
| 2026-04-24 20:30 | 46.46099 | 18.64672 | 35022 ft | 433 kts | 12° |
| 2026-04-24 20:31 | 46.51987 | 18.66652 | 35016 ft | 433 kts | 13° |
| 2026-04-24 20:31 | 46.57826 | 18.68623 | 35015 ft | 432 kts | 13° |
| 2026-04-24 20:32 | 46.63680 | 18.70588 | 35016 ft | 432 kts | 13° |
| 2026-04-24 20:32 | 46.69535 | 18.72554 | 35013 ft | 432 kts | 13° |
| 2026-04-24 20:33 | 46.75349 | 18.74505 | 35009 ft | 431 kts | 12° |
| 2026-04-24 20:33 | 46.81195 | 18.76473 | 35009 ft | 432 kts | 12° |
| 2026-04-24 20:34 | 46.87047 | 18.78447 | 35005 ft | 431 kts | 12° |
| 2026-04-24 20:34 | 46.92883 | 18.80416 | 35008 ft | 431 kts | 12° |
| 2026-04-24 20:35 | 46.98731 | 18.82399 | 35000 ft | 430 kts | 12° |
| 2026-04-24 20:35 | 47.04542 | 18.84371 | 35001 ft | 431 kts | 12° |
| 2026-04-24 20:36 | 47.10380 | 18.86358 | 34999 ft | 430 kts | 12° |
| 2026-04-24 20:36 | 47.16227 | 18.88344 | 34997 ft | 430 kts | 12° |
| 2026-04-24 20:37 | 47.22059 | 18.90332 | 34995 ft | 429 kts | 12° |
| 2026-04-24 20:37 | 47.27857 | 18.92318 | 34995 ft | 429 kts | 12° |
| 2026-04-24 20:38 | 47.33683 | 18.94318 | 34995 ft | 429 kts | 12° |
| 2026-04-24 20:38 | 47.39513 | 18.96328 | 34995 ft | 429 kts | 12° |
| 2026-04-24 20:39 | 47.45339 | 18.98342 | 34994 ft | 429 kts | 12° |
| 2026-04-24 20:39 | 47.51120 | 19.00446 | 34998 ft | 430 kts | 14° |
| 2026-04-24 20:40 | 47.56858 | 19.02912 | 34996 ft | 429 kts | 14° |
| 2026-04-24 20:40 | 47.62552 | 19.05405 | 34997 ft | 430 kts | 14° |
| 2026-04-24 20:41 | 47.68309 | 19.07930 | 34992 ft | 430 kts | 14° |
| 2026-04-24 20:41 | 47.74031 | 19.10442 | 34995 ft | 429 kts | 14° |
| 2026-04-24 20:42 | 47.79733 | 19.12951 | 34994 ft | 429 kts | 14° |
| 2026-04-24 20:42 | 47.85463 | 19.15478 | 34994 ft | 429 kts | 14° |
| 2026-04-24 20:43 | 47.91183 | 19.18010 | 34991 ft | 429 kts | 14° |
| 2026-04-24 20:43 | 47.96901 | 19.20547 | 34993 ft | 429 kts | 14° |
| 2026-04-24 20:44 | 48.02633 | 19.23094 | 34992 ft | 429 kts | 14° |
| 2026-04-24 20:44 | 48.08353 | 19.25330 | 34991 ft | 427 kts | 9° |
| 2026-04-24 20:45 | 48.14224 | 19.27012 | 34992 ft | 427 kts | 8° |
| 2026-04-24 20:45 | 48.20058 | 19.28626 | 34994 ft | 426 kts | 8° |
| 2026-04-24 20:46 | 48.25859 | 19.30239 | 35001 ft | 426 kts | 8° |
| 2026-04-24 20:46 | 48.31682 | 19.31870 | 34998 ft | 426 kts | 8° |
| 2026-04-24 20:47 | 48.37521 | 19.33511 | 35000 ft | 426 kts | 8° |
| 2026-04-24 20:47 | 48.43315 | 19.35143 | 35000 ft | 426 kts | 8° |
| 2026-04-24 20:48 | 48.49134 | 19.36787 | 34997 ft | 426 kts | 7° |
| 2026-04-24 20:48 | 48.54943 | 19.38431 | 35000 ft | 425 kts | 7° |
| 2026-04-24 20:49 | 48.60791 | 19.40091 | 34999 ft | 426 kts | 7° |
| 2026-04-24 20:49 | 48.66584 | 19.41739 | 34811 ft | 421 kts | 7° |
| 2026-04-24 20:50 | 48.69452 | 19.42558 | 34205 ft | 417 kts | 7° |
| 2026-04-24 20:50 | 48.72279 | 19.43364 | 33288 ft | 420 kts | 7° |
| 2026-04-24 20:50 | 48.75164 | 19.44187 | 32358 ft | 423 kts | 7° |
| 2026-04-24 20:50 | 48.78056 | 19.45012 | 31852 ft | 432 kts | 7° |
| 2026-04-24 20:51 | 48.81024 | 19.45860 | 31342 ft | 436 kts | 7° |
| 2026-04-24 20:51 | 48.84012 | 19.46716 | 30814 ft | 438 kts | 7° |
| 2026-04-24 20:51 | 48.87032 | 19.47582 | 30286 ft | 441 kts | 7° |
| 2026-04-24 20:51 | 48.90036 | 19.48446 | 29755 ft | 444 kts | 7° |
| 2026-04-24 20:52 | 48.93103 | 19.49328 | 29214 ft | 446 kts | 7° |
| 2026-04-24 20:52 | 48.96110 | 19.50196 | 28630 ft | 444 kts | 7° |
| 2026-04-24 20:52 | 48.99146 | 19.51075 | 27833 ft | 443 kts | 7° |
| 2026-04-24 20:52 | 49.02167 | 19.51946 | 27258 ft | 450 kts | 7° |
| 2026-04-24 20:53 | 49.05273 | 19.52842 | 26724 ft | 455 kts | 7° |
| 2026-04-24 20:53 | 49.08405 | 19.53748 | 26198 ft | 457 kts | 7° |
| 2026-04-24 20:53 | 49.11491 | 19.54641 | 25688 ft | 460 kts | 7° |
| 2026-04-24 20:53 | 49.14655 | 19.55559 | 25164 ft | 461 kts | 7° |
| 2026-04-24 20:54 | 49.17820 | 19.56478 | 24684 ft | 463 kts | 7° |
| 2026-04-24 20:54 | 49.20930 | 19.57385 | 24230 ft | 458 kts | 7° |
| 2026-04-24 20:54 | 49.24082 | 19.58307 | 23768 ft | 458 kts | 7° |
| 2026-04-24 20:54 | 49.27204 | 19.59219 | 23284 ft | 460 kts | 7° |
| 2026-04-24 20:55 | 49.30345 | 19.60139 | 22842 ft | 458 kts | 7° |
| 2026-04-24 20:55 | 49.33448 | 19.61051 | 22459 ft | 457 kts | 7° |
| 2026-04-24 20:55 | 49.36578 | 19.61974 | 22114 ft | 455 kts | 7° |
| 2026-04-24 20:55 | 49.39690 | 19.62890 | 21809 ft | 453 kts | 7° |
| 2026-04-24 20:56 | 49.42736 | 19.63796 | 21269 ft | 447 kts | 8° |
| 2026-04-24 20:56 | 49.45644 | 19.65417 | 20561 ft | 449 kts | 27° |
| 2026-04-24 20:56 | 49.48033 | 19.68477 | 20099 ft | 452 kts | 43° |
| 2026-04-24 20:56 | 49.50134 | 19.71990 | 19619 ft | 445 kts | 43° |
| 2026-04-24 20:57 | 49.52246 | 19.75496 | 19124 ft | 445 kts | 43° |
| 2026-04-24 20:57 | 49.54350 | 19.78962 | 18627 ft | 437 kts | 43° |
| 2026-04-24 20:57 | 49.56383 | 19.82303 | 18160 ft | 426 kts | 43° |
| 2026-04-24 20:57 | 49.58388 | 19.85590 | 17696 ft | 418 kts | 43° |
| 2026-04-24 20:58 | 49.60420 | 19.88725 | 17192 ft | 414 kts | 35° |
| 2026-04-24 20:58 | 49.62849 | 19.91040 | 16618 ft | 405 kts | 23° |
| 2026-04-24 20:58 | 49.65335 | 19.92898 | 16066 ft | 398 kts | 21° |
| 2026-04-24 20:58 | 49.67827 | 19.94722 | 15496 ft | 392 kts | 21° |
| 2026-04-24 20:59 | 49.70245 | 19.96540 | 14941 ft | 386 kts | 22° |
| 2026-04-24 20:59 | 49.72631 | 19.98383 | 14393 ft | 376 kts | 23° |
| 2026-04-24 20:59 | 49.74907 | 20.00173 | 13850 ft | 368 kts | 23° |
| 2026-04-24 20:59 | 49.77156 | 20.01964 | 13312 ft | 354 kts | 23° |
| 2026-04-24 21:00 | 49.78583 | 20.03107 | 12965 ft | 346 kts | 23° |
| 2026-04-24 21:00 | 49.81368 | 20.05351 | 12333 ft | 329 kts | 23° |
| 2026-04-24 21:00 | 49.83344 | 20.06944 | 11839 ft | 318 kts | 24° |
| 2026-04-24 21:00 | 49.85296 | 20.08522 | 11342 ft | 310 kts | 24° |
| 2026-04-24 21:01 | 49.87174 | 20.10041 | 10863 ft | 307 kts | 23° |
| 2026-04-24 21:01 | 49.89049 | 20.11560 | 10373 ft | 299 kts | 24° |
| 2026-04-24 21:01 | 49.90864 | 20.13033 | 9875 ft | 293 kts | 24° |
| 2026-04-24 21:01 | 49.92644 | 20.14480 | 9374 ft | 286 kts | 24° |
| 2026-04-24 21:02 | 49.94380 | 20.15892 | 8894 ft | 281 kts | 23° |
| 2026-04-24 21:02 | 49.96097 | 20.17293 | 8498 ft | 273 kts | 23° |
| 2026-04-24 21:02 | 49.97751 | 20.18642 | 8095 ft | 266 kts | 23° |
| 2026-04-24 21:02 | 49.99376 | 20.19965 | 7695 ft | 264 kts | 23° |
| 2026-04-24 21:03 | 50.01031 | 20.21251 | 7268 ft | 262 kts | 16° |
| 2026-04-24 21:03 | 50.02766 | 20.21527 | 6681 ft | 251 kts | 341° |
| 2026-04-24 21:03 | 50.04234 | 20.20252 | 6116 ft | 241 kts | 314° |
| 2026-04-24 21:03 | 50.05395 | 20.18432 | 5625 ft | 235 kts | 313° |
| 2026-04-24 21:04 | 50.06544 | 20.16674 | 5340 ft | 224 kts | 315° |
| 2026-04-24 21:04 | 50.07674 | 20.15032 | 5053 ft | 220 kts | 315° |
| 2026-04-24 21:04 | 50.08800 | 20.13443 | 4779 ft | 217 kts | 316° |
| 2026-04-24 21:04 | 50.09914 | 20.11894 | 4544 ft | 215 kts | 317° |
| 2026-04-24 21:05 | 50.11024 | 20.10348 | 4305 ft | 207 kts | 313° |
| 2026-04-24 21:05 | 50.11674 | 20.08486 | 3967 ft | 197 kts | 280° |
| 2026-04-24 21:05 | 50.11632 | 20.06409 | 3691 ft | 189 kts | 264° |
| 2026-04-24 21:05 | 50.11411 | 20.04443 | 3512 ft | 178 kts | 261° |
| 2026-04-24 21:06 | 50.11167 | 20.02634 | 3344 ft | 162 kts | 261° |
| 2026-04-24 21:06 | 50.10937 | 20.01016 | 3254 ft | 148 kts | 261° |
| 2026-04-24 21:06 | 50.10717 | 19.99467 | 3142 ft | 145 kts | 261° |
| 2026-04-24 21:06 | 50.10499 | 19.97930 | 3069 ft | 145 kts | 261° |
| 2026-04-24 21:07 | 50.10284 | 19.96413 | 2906 ft | 142 kts | 261° |
| 2026-04-24 21:07 | 50.10073 | 19.94926 | 2710 ft | 139 kts | 261° |
| 2026-04-24 21:07 | 50.09867 | 19.93463 | 2528 ft | 138 kts | 262° |
| 2026-04-24 21:07 | 50.09658 | 19.91983 | 2349 ft | 138 kts | 262° |
| 2026-04-24 21:08 | 50.09449 | 19.90540 | 2150 ft | 136 kts | 261° |
| 2026-04-24 21:08 | 50.09237 | 19.89125 | 1972 ft | 135 kts | 262° |
| 2026-04-24 21:08 | 50.09044 | 19.87680 | 1810 ft | 135 kts | 262° |
| 2026-04-24 21:08 | 50.08846 | 19.86253 | 1620 ft | 135 kts | 262° |
| 2026-04-24 21:09 | 50.08645 | 19.84822 | 1421 ft | 136 kts | 261° |
| 2026-04-24 21:09 | 50.08451 | 19.83379 | 1282 ft | 136 kts | 261° |
| 2026-04-24 21:09 | 50.08255 | 19.81938 | 1126 ft | 137 kts | 261° |
| 2026-04-24 21:09 | 50.08058 | 19.80492 | 924 ft | 135 kts | 260° |
| 2026-04-24 21:10 | 50.07863 | 19.79108 | 800 ft | 123 kts | 259° |
| 2026-04-24 21:10 | 50.07709 | 19.78039 | 799 ft | 78 kts | 257° |
| 2026-04-24 21:10 | 50.07616 | 19.77385 | 800 ft | 55 kts | 257° |
| 2026-04-24 21:10 | 50.07540 | 19.76913 | 799 ft | 23 kts | 236° |
| 2026-04-24 21:11 | 50.07430 | 19.76872 | 799 ft | 17 kts | 168° |
| 2026-04-24 21:11 | 50.07319 | 19.76940 | 799 ft | 17 kts | 115° |
| 2026-04-24 21:11 | 50.07330 | 19.77124 | 799 ft | 18 kts | 76° |
| 2026-04-24 21:11 | 50.07359 | 19.77317 | 799 ft | 18 kts | 78° |
| 2026-04-24 21:12 | 50.07394 | 19.77564 | 799 ft | 26 kts | 77° |
| 2026-04-24 21:12 | 50.07421 | 19.77750 | 799 ft | 26 kts | 77° |
| 2026-04-24 21:12 | 50.07471 | 19.78110 | 799 ft | 24 kts | 78° |
| 2026-04-24 21:12 | 50.07505 | 19.78365 | 799 ft | 23 kts | 78° |
| 2026-04-24 21:13 | 50.07542 | 19.78616 | 799 ft | 23 kts | 77° |
| 2026-04-24 21:13 | 50.07574 | 19.78860 | 799 ft | 23 kts | 77° |
| 2026-04-24 21:13 | 50.07603 | 19.79091 | 799 ft | 21 kts | 79° |
| 2026-04-24 21:13 | 50.07632 | 19.79318 | 799 ft | 21 kts | 81° |
| 2026-04-24 21:14 | 50.07667 | 19.79535 | 799 ft | 20 kts | 77° |
| 2026-04-24 21:14 | 50.07652 | 19.79692 | 799 ft | 14 kts | 159° |
| 2026-04-24 21:14 | 50.07550 | 19.79733 | 799 ft | 15 kts | 167° |
| 2026-04-24 21:14 | 50.07438 | 19.79772 | 799 ft | 17 kts | 168° |
| 2026-04-24 21:15 | 50.07378 | 19.79846 | 799 ft | 8 kts | 96° |
| 2026-04-24 21:15 | 50.07333 | 19.79875 | 799 ft | 8 kts | 167° |
| 2026-04-24 21:15 | 50.07296 | 19.79889 | 799 ft | 0 kts | 165° |